createdAt,value
2022-11-30T00:00:07.226Z,23.38
2022-11-30T00:02:58.332Z,24.38
2022-11-30T00:05:26.562Z,19.08
2022-11-30T00:07:54.780Z,24.08
2022-11-30T00:10:23.946Z,17.42
2022-11-30T00:12:52.041Z,21.08
2022-11-30T00:15:20.580Z,18.13
2022-11-30T00:17:49.909Z,22.30
2022-11-30T00:20:18.237Z,15.85
2022-11-30T00:22:46.212Z,16.70
2022-11-30T00:25:14.095Z,19.70
2022-11-30T00:27:42.324Z,25.73
2022-11-30T00:30:10.890Z,23.88
2022-11-30T00:32:39.197Z,23.98
2022-11-30T00:35:07.709Z,24.33
2022-11-30T00:37:36.013Z,23.90
2022-11-30T00:40:05.878Z,18.17
2022-11-30T00:42:33.890Z,20.67
2022-11-30T00:45:01.826Z,18.63
2022-11-30T00:47:29.759Z,21.80
2022-11-30T00:49:58.049Z,15.27
2022-11-30T00:52:25.906Z,20.00
2022-11-30T00:54:53.881Z,19.40
2022-11-30T00:57:22.128Z,20.10
2022-11-30T00:59:49.974Z,20.15
2022-11-30T01:02:18.002Z,24.48
2022-11-30T01:04:46.856Z,18.13
2022-11-30T01:07:14.810Z,23.92
2022-11-30T01:09:42.721Z,18.75
2022-11-30T01:12:10.954Z,20.25
2022-11-30T01:14:38.990Z,14.27
2022-11-30T01:17:06.830Z,19.20
2022-11-30T01:19:34.910Z,9.85
2022-11-30T01:22:02.912Z,14.65
2022-11-30T01:24:30.774Z,18.17
2022-11-30T01:26:58.885Z,16.33
2022-11-30T01:29:26.669Z,17.40
2022-11-30T01:31:54.524Z,17.60
2022-11-30T01:34:22.657Z,15.63
2022-11-30T01:36:50.529Z,17.95
2022-11-30T01:39:18.461Z,19.52
2022-11-30T01:41:46.700Z,16.02
2022-11-30T01:44:19.719Z,15.77
2022-11-30T01:47:06.658Z,16.08
2022-11-30T01:49:41.462Z,11.55
2022-11-30T01:52:37.080Z,13.50
2022-11-30T01:55:42.528Z,12.43
2022-11-30T01:58:21.255Z,13.82
2022-11-30T02:00:49.219Z,13.38
2022-11-30T02:03:24.049Z,11.50
2022-11-30T02:05:52.173Z,14.18
2022-11-30T02:08:20.707Z,14.02
2022-11-30T02:10:59.018Z,16.27
2022-11-30T02:13:52.780Z,16.90
2022-11-30T02:16:48.643Z,14.80
2022-11-30T02:19:44.396Z,16.17
2022-11-30T02:22:57.065Z,16.63
2022-11-30T02:25:52.595Z,13.27
2022-11-30T02:29:01.040Z,13.45
2022-11-30T02:32:08.359Z,13.85
2022-11-30T02:34:41.060Z,14.20
2022-11-30T02:37:11.761Z,13.35
2022-11-30T02:39:39.637Z,12.48
2022-11-30T02:42:14.947Z,16.27
2022-11-30T02:44:49.256Z,11.40
2022-11-30T02:47:42.682Z,14.27
2022-11-30T02:50:22.385Z,14.55
2022-11-30T02:52:51.981Z,13.18
2022-11-30T02:55:20.864Z,12.48
2022-11-30T02:57:48.635Z,13.50
2022-11-30T03:00:17.405Z,15.43
2022-11-30T03:02:45.481Z,14.25
2022-11-30T03:05:13.647Z,14.73
2022-11-30T03:07:41.915Z,16.77
2022-11-30T03:10:10.505Z,13.18
2022-11-30T03:12:38.442Z,14.52
2022-11-30T03:15:07.449Z,11.35
2022-11-30T03:17:35.404Z,11.48
2022-11-30T03:20:04.620Z,12.35
2022-11-30T03:22:32.848Z,11.25
2022-11-30T03:25:00.744Z,11.55
2022-11-30T03:27:28.667Z,13.38
2022-11-30T03:29:57.257Z,14.90
2022-11-30T03:32:25.159Z,8.82
2022-11-30T03:34:53.130Z,14.55
2022-11-30T03:37:21.198Z,15.57
2022-11-30T03:39:51.405Z,13.82
2022-11-30T03:42:24.056Z,11.80
2022-11-30T03:44:51.986Z,14.15
2022-11-30T03:47:19.851Z,13.90
2022-11-30T03:49:48.090Z,16.13
2022-11-30T03:52:16.043Z,13.48
2022-11-30T03:54:44.010Z,14.98
2022-11-30T03:57:12.667Z,13.02
2022-11-30T03:59:40.555Z,15.25
2022-11-30T04:02:08.413Z,13.43
2022-11-30T04:04:36.747Z,13.52
2022-11-30T04:07:04.570Z,15.18
2022-11-30T04:09:32.397Z,12.57
2022-11-30T04:12:00.639Z,18.08
2022-11-30T04:14:28.625Z,18.13
2022-11-30T04:16:57.023Z,20.48
2022-11-30T04:19:25.206Z,14.55
2022-11-30T04:21:53.128Z,14.75
2022-11-30T04:24:21.065Z,14.73
2022-11-30T04:26:49.260Z,17.63
2022-11-30T04:29:17.299Z,15.82
2022-11-30T04:31:45.299Z,14.80
2022-11-30T04:34:13.322Z,15.63
2022-11-30T04:36:41.190Z,18.33
2022-11-30T04:39:09.071Z,17.23
2022-11-30T04:41:37.711Z,15.43
2022-11-30T04:44:05.637Z,13.95
2022-11-30T04:46:33.613Z,15.90
2022-11-30T04:49:02.004Z,17.88
2022-11-30T04:51:29.885Z,16.70
2022-11-30T04:53:57.819Z,16.45
2022-11-30T04:56:25.961Z,16.92
2022-11-30T04:58:53.916Z,12.95
2022-11-30T05:01:21.854Z,16.67
2022-11-30T05:03:50.026Z,16.30
2022-11-30T05:06:17.908Z,14.57
2022-11-30T05:08:46.272Z,18.50
2022-11-30T05:11:14.443Z,16.67
2022-11-30T05:13:42.410Z,15.43
2022-11-30T05:16:10.810Z,15.32
2022-11-30T05:18:39.327Z,15.10
2022-11-30T05:21:07.242Z,13.38
2022-11-30T05:23:36.397Z,13.25
2022-11-30T05:26:05.046Z,12.57
2022-11-30T05:28:33.043Z,17.50
2022-11-30T05:31:07.597Z,19.23
2022-11-30T05:33:35.610Z,17.35
2022-11-30T05:36:10.184Z,16.75
2022-11-30T05:38:38.930Z,13.15
2022-11-30T05:41:06.999Z,17.00
2022-11-30T05:43:34.946Z,12.85
2022-11-30T05:46:05.128Z,16.40
2022-11-30T05:48:33.350Z,24.27
2022-11-30T05:51:13.696Z,28.60
2022-11-30T05:53:47.735Z,52.35
2022-11-30T05:56:21.852Z,25.23
2022-11-30T05:58:49.799Z,24.90
2022-11-30T06:01:24.576Z,18.60
2022-11-30T06:03:53.338Z,13.75
2022-11-30T06:06:21.713Z,20.45
2022-11-30T06:08:50.609Z,16.38
2022-11-30T06:11:18.636Z,17.98
2022-11-30T06:13:46.559Z,20.80
2022-11-30T06:16:14.746Z,17.02
2022-11-30T06:18:42.742Z,18.15
2022-11-30T06:21:11.877Z,15.35
2022-11-30T06:23:40.162Z,19.10
2022-11-30T06:26:11.994Z,17.05
2022-11-30T06:28:43.130Z,16.60
2022-11-30T06:31:15.103Z,16.70
2022-11-30T06:33:43.488Z,18.92
2022-11-30T06:36:11.528Z,18.88
2022-11-30T06:38:39.679Z,26.83
2022-11-30T06:41:09.964Z,26.58
2022-11-30T06:43:39.263Z,24.38
2022-11-30T06:46:08.373Z,23.15
2022-11-30T06:48:36.692Z,18.83
2022-11-30T06:51:10.513Z,20.75
2022-11-30T06:53:38.760Z,16.92
2022-11-30T06:56:10.442Z,16.63
2022-11-30T06:58:42.525Z,15.80
2022-11-30T07:01:15.224Z,21.95
2022-11-30T07:03:43.870Z,24.10
2022-11-30T07:06:14.199Z,21.80
2022-11-30T07:08:43.290Z,18.75
2022-11-30T07:11:12.896Z,21.40
2022-11-30T07:13:40.804Z,20.88
2022-11-30T07:16:11.562Z,20.33
2022-11-30T07:18:40.379Z,17.10
2022-11-30T07:21:10.148Z,15.02
2022-11-30T07:23:57.272Z,18.20
2022-11-30T07:26:26.228Z,19.25
2022-11-30T07:28:58.547Z,19.15
2022-11-30T07:31:36.585Z,15.65
2022-11-30T07:34:08.364Z,13.77
2022-11-30T07:36:38.015Z,15.10
2022-11-30T07:39:06.106Z,7.43
2022-11-30T07:41:34.659Z,10.82
2022-11-30T07:44:06.037Z,15.48
2022-11-30T07:46:36.358Z,13.02
2022-11-30T07:49:07.019Z,10.18
2022-11-30T07:51:35.469Z,13.43
2022-11-30T07:54:04.046Z,13.18
2022-11-30T07:56:32.036Z,11.52
2022-11-30T07:59:02.328Z,13.35
2022-11-30T08:01:33.461Z,13.70
2022-11-30T08:04:01.743Z,13.43
2022-11-30T08:06:31.668Z,13.93
2022-11-30T08:09:03.355Z,9.77
2022-11-30T08:14:03.718Z,11.98
2022-11-30T08:16:38.254Z,15.70
2022-11-30T08:19:06.705Z,15.05
2022-11-30T08:21:34.613Z,11.30
2022-11-30T08:24:02.884Z,14.85
2022-11-30T08:26:33.826Z,15.23
2022-11-30T08:29:02.348Z,13.77
2022-11-30T08:31:36.502Z,14.00
2022-11-30T08:34:13.604Z,18.13
2022-11-30T08:36:42.902Z,14.48
2022-11-30T08:41:41.285Z,20.38
2022-11-30T08:44:09.701Z,13.35
2022-11-30T08:46:54.064Z,16.55
2022-11-30T08:55:00.496Z,17.70
2022-11-30T08:57:28.486Z,17.77
2022-11-30T08:59:56.871Z,16.52
2022-11-30T09:02:25.073Z,18.98
2022-11-30T09:04:53.695Z,17.35
2022-11-30T09:07:21.582Z,16.80
2022-11-30T09:09:49.744Z,15.70
2022-11-30T09:12:17.665Z,15.68
2022-11-30T09:14:46.792Z,20.73
2022-11-30T09:17:16.958Z,17.00
2022-11-30T09:19:44.936Z,17.50
2022-11-30T09:22:12.780Z,19.42
2022-11-30T09:24:41.877Z,14.52
2022-11-30T09:27:09.988Z,14.32
2022-11-30T09:29:37.816Z,16.83
2022-11-30T09:32:06.995Z,8.88
2022-11-30T09:34:34.914Z,11.32
2022-11-30T09:37:02.789Z,15.43
2022-11-30T09:39:31.054Z,13.65
2022-11-30T09:42:23.632Z,13.68
2022-11-30T09:45:14.589Z,13.50
2022-11-30T09:48:22.939Z,8.85
2022-11-30T09:50:52.585Z,10.65
2022-11-30T09:53:36.713Z,8.10
2022-11-30T09:56:23.057Z,10.13
2022-11-30T09:59:05.987Z,10.07
2022-11-30T10:01:37.456Z,8.80
2022-11-30T10:06:43.460Z,11.13
2022-11-30T10:10:31.786Z,10.00
2022-11-30T10:13:21.171Z,8.13
2022-11-30T10:16:04.357Z,8.32
2022-11-30T10:19:25.301Z,7.00
2022-11-30T10:22:37.324Z,14.43
2022-11-30T10:25:20.495Z,7.30
2022-11-30T10:28:45.722Z,8.23
2022-11-30T10:31:14.379Z,7.95
2022-11-30T10:33:54.465Z,5.82
2022-11-30T10:36:44.451Z,6.95
2022-11-30T10:39:50.123Z,8.57
2022-11-30T10:42:27.292Z,9.57
2022-11-30T10:45:12.385Z,7.95
2022-11-30T10:48:14.076Z,8.13
2022-11-30T10:50:42.738Z,7.07
2022-11-30T10:53:13.081Z,7.90
2022-11-30T10:55:50.356Z,12.05
2022-11-30T10:58:59.113Z,8.32
2022-11-30T11:01:35.276Z,8.93
2022-11-30T11:04:25.521Z,10.52
2022-11-30T11:07:18.069Z,7.60
2022-11-30T11:09:50.666Z,9.30
2022-11-30T11:12:25.902Z,9.52
2022-11-30T11:15:31.116Z,6.95
2022-11-30T11:18:23.962Z,10.32
2022-11-30T11:21:16.657Z,7.20
2022-11-30T11:23:46.246Z,9.50
2022-11-30T11:26:22.870Z,6.38
2022-11-30T11:28:54.283Z,7.55
2022-11-30T11:31:46.618Z,8.65
2022-11-30T11:34:37.202Z,7.00
2022-11-30T11:37:37.823Z,9.43
2022-11-30T11:40:08.845Z,4.07
2022-11-30T11:42:51.491Z,5.32
2022-11-30T11:45:38.008Z,4.82
2022-11-30T11:48:29.198Z,6.90
2022-11-30T11:51:10.141Z,6.45
2022-11-30T11:53:47.403Z,5.15
2022-11-30T11:56:23.701Z,6.53
2022-11-30T11:59:09.743Z,7.50
2022-11-30T12:01:59.525Z,8.10
2022-11-30T12:04:52.962Z,7.47
2022-11-30T12:08:03.100Z,7.85
2022-11-30T12:10:51.820Z,6.07
2022-11-30T12:13:33.336Z,5.80
2022-11-30T12:16:11.945Z,5.38
2022-11-30T12:19:05.615Z,5.45
2022-11-30T12:21:54.843Z,5.03
2022-11-30T12:25:06.305Z,5.10
2022-11-30T12:28:10.013Z,5.93
2022-11-30T12:30:53.531Z,10.95
2022-11-30T12:33:25.309Z,7.75
2022-11-30T12:36:11.458Z,11.90
2022-11-30T12:38:50.281Z,10.95
2022-11-30T12:41:31.950Z,13.18
2022-11-30T12:44:45.536Z,7.70
2022-11-30T12:47:22.110Z,6.97
2022-11-30T12:50:43.614Z,8.75
2022-11-30T12:53:27.231Z,9.10
2022-11-30T12:56:14.157Z,7.25
2022-11-30T12:59:00.324Z,10.00
2022-11-30T13:02:14.109Z,11.55
2022-11-30T13:05:02.160Z,10.73
2022-11-30T13:07:38.444Z,9.15
2022-11-30T13:10:12.637Z,11.95
2022-11-30T13:12:47.890Z,12.63
2022-11-30T13:15:31.542Z,10.05
2022-11-30T13:18:01.875Z,11.13
2022-11-30T13:20:48.779Z,16.65
2022-11-30T13:23:39.245Z,10.43
2022-11-30T13:26:44.689Z,10.18
2022-11-30T13:29:59.098Z,11.35
2022-11-30T13:32:56.863Z,20.83
2022-11-30T13:35:30.648Z,10.50
2022-11-30T13:38:38.529Z,14.13
2022-11-30T13:41:09.231Z,14.48
2022-11-30T13:43:50.078Z,21.63
2022-11-30T13:46:24.055Z,19.65
2022-11-30T13:49:30.327Z,15.40
2022-11-30T13:52:21.362Z,14.52
2022-11-30T13:54:54.678Z,19.23
2022-11-30T13:57:28.750Z,28.23
2022-11-30T14:00:02.864Z,25.63
2022-11-30T14:02:42.557Z,20.30
2022-11-30T14:05:17.359Z,13.75
2022-11-30T14:07:52.204Z,17.65
2022-11-30T14:10:31.516Z,15.80
2022-11-30T14:13:09.532Z,20.35
2022-11-30T14:15:41.159Z,15.52
2022-11-30T14:18:09.211Z,16.33
2022-11-30T14:20:51.311Z,15.25
2022-11-30T14:23:39.478Z,15.63
2022-11-30T14:26:27.906Z,14.35
2022-11-30T14:29:08.332Z,19.17
2022-11-30T14:31:48.954Z,19.13
2022-11-30T14:34:46.066Z,20.15
2022-11-30T14:37:27.299Z,19.60
2022-11-30T14:39:56.840Z,20.05
2022-11-30T14:42:29.507Z,23.65
2022-11-30T14:44:58.406Z,18.88
2022-11-30T14:47:36.557Z,20.00
2022-11-30T14:50:06.694Z,26.05
2022-11-30T14:53:21.825Z,21.10
2022-11-30T14:56:30.418Z,23.55
2022-11-30T14:59:32.694Z,16.98
2022-11-30T15:02:13.036Z,21.25
2022-11-30T15:04:41.252Z,15.95
2022-11-30T15:07:15.578Z,18.38
2022-11-30T15:09:49.351Z,17.67
2022-11-30T15:12:22.474Z,21.02
2022-11-30T15:15:30.091Z,22.48
2022-11-30T15:18:27.687Z,23.88
2022-11-30T15:21:08.654Z,23.83
2022-11-30T15:23:37.658Z,23.97
2022-11-30T15:26:27.825Z,25.80
2022-11-30T15:29:07.513Z,21.67
2022-11-30T15:31:41.997Z,24.00
2022-11-30T15:34:28.361Z,24.90
2022-11-30T15:36:58.766Z,26.10
2022-11-30T15:39:29.947Z,22.60
2022-11-30T15:42:01.581Z,25.25
2022-11-30T15:47:32.380Z,25.13
2022-11-30T15:50:00.748Z,23.98
2022-11-30T15:52:31.481Z,26.80
2022-11-30T15:55:03.709Z,22.83
2022-11-30T15:58:01.866Z,23.95
2022-11-30T16:00:30.471Z,26.17
2022-11-30T16:03:09.430Z,28.95
2022-11-30T16:05:39.892Z,27.55
2022-11-30T16:08:17.138Z,26.73
2022-11-30T16:10:45.543Z,27.83
2022-11-30T16:13:16.174Z,24.88
2022-11-30T16:15:47.460Z,26.08
2022-11-30T16:18:26.935Z,28.70
2022-11-30T16:20:59.496Z,34.30
2022-11-30T16:23:28.765Z,61.75
2022-11-30T16:25:57.378Z,35.63
2022-11-30T16:28:25.527Z,28.42
2022-11-30T16:30:59.714Z,22.17
2022-11-30T16:33:28.416Z,30.42
2022-11-30T16:36:01.596Z,29.17
2022-11-30T16:38:29.663Z,24.35
2022-11-30T16:41:13.252Z,26.13
2022-11-30T16:43:42.283Z,30.98
2022-11-30T16:46:13.458Z,20.38
2022-11-30T16:48:42.208Z,30.38
2022-11-30T16:51:28.761Z,41.25
2022-11-30T16:53:57.370Z,45.10
2022-11-30T16:56:25.663Z,42.17
2022-11-30T16:58:54.408Z,37.72
2022-11-30T17:01:43.850Z,34.30
2022-11-30T17:04:20.617Z,32.45
2022-11-30T17:06:50.860Z,37.00
2022-11-30T17:09:21.841Z,31.45
2022-11-30T17:11:51.681Z,20.98
2022-11-30T17:14:22.242Z,27.77
2022-11-30T17:16:50.466Z,23.02
2022-11-30T17:19:18.948Z,29.05
2022-11-30T17:21:48.432Z,31.40
2022-11-30T17:24:16.880Z,24.48
2022-11-30T17:26:44.823Z,33.22
2022-11-30T17:29:12.824Z,30.00
2022-11-30T17:31:40.916Z,25.58
2022-11-30T17:34:09.122Z,26.35
2022-11-30T17:36:57.062Z,27.13
2022-11-30T17:39:25.030Z,23.77
2022-11-30T17:41:53.147Z,29.25
2022-11-30T17:44:21.214Z,27.50
2022-11-30T17:46:49.198Z,26.88
2022-11-30T17:49:17.472Z,28.70
2022-11-30T17:51:45.612Z,27.10
2022-11-30T17:54:14.194Z,29.17
2022-11-30T17:56:43.729Z,27.60
2022-11-30T17:59:11.837Z,26.52
2022-11-30T18:01:40.622Z,24.83
2022-11-30T18:04:11.686Z,26.52
2022-11-30T18:06:40.955Z,25.98
2022-11-30T18:09:09.148Z,26.25
2022-11-30T18:11:37.246Z,26.92
2022-11-30T18:14:05.547Z,25.95
2022-11-30T18:16:37.418Z,26.23
2022-11-30T18:19:12.807Z,24.60
2022-11-30T18:21:44.325Z,30.13
2022-11-30T18:24:12.628Z,23.30
2022-11-30T18:26:41.128Z,25.55
2022-11-30T18:29:10.983Z,26.98
2022-11-30T18:31:38.983Z,25.35
2022-11-30T18:34:08.694Z,23.90
2022-11-30T18:36:36.668Z,26.35
2022-11-30T18:39:05.537Z,29.23
2022-11-30T18:41:33.618Z,23.75
2022-11-30T18:44:04.972Z,26.50
2022-11-30T18:46:33.167Z,25.67
2022-11-30T18:49:02.418Z,25.70
2022-11-30T18:51:31.448Z,32.03
2022-11-30T18:54:10.106Z,30.73
2022-11-30T18:56:39.356Z,28.65
2022-11-30T18:59:15.754Z,31.40
2022-11-30T19:01:43.773Z,27.40
2022-11-30T19:04:12.143Z,25.15
2022-11-30T19:06:42.453Z,26.20
2022-11-30T19:09:14.390Z,31.00
2022-11-30T19:11:43.650Z,33.05
2022-11-30T19:14:17.013Z,28.15
2022-11-30T19:16:46.794Z,26.65
2022-11-30T19:19:15.384Z,26.60
2022-11-30T19:21:47.385Z,27.80
2022-11-30T19:24:16.850Z,29.52
2022-11-30T19:26:44.975Z,27.80
2022-11-30T19:29:13.116Z,33.40
2022-11-30T19:31:41.167Z,30.40
2022-11-30T19:34:13.020Z,30.85
2022-11-30T19:36:41.869Z,31.05
2022-11-30T19:39:10.940Z,31.23
2022-11-30T19:41:38.946Z,28.92
2022-11-30T19:44:06.862Z,30.92
2022-11-30T19:46:35.285Z,33.35
2022-11-30T19:49:03.683Z,34.03
2022-11-30T19:51:32.276Z,34.35
2022-11-30T19:54:02.159Z,34.92
2022-11-30T19:56:34.284Z,32.90
2022-11-30T19:59:05.655Z,31.98
2022-11-30T20:01:35.009Z,34.30
2022-11-30T20:04:05.108Z,29.33
2022-11-30T20:06:37.202Z,28.63
2022-11-30T20:09:07.867Z,28.27
2022-11-30T20:11:35.953Z,28.75
2022-11-30T20:14:04.443Z,31.10
2022-11-30T20:16:33.889Z,29.25
2022-11-30T20:19:02.754Z,35.05
2022-11-30T20:21:35.266Z,32.33
2022-11-30T20:24:07.821Z,35.67
2022-11-30T20:26:40.000Z,33.13
2022-11-30T20:29:13.068Z,36.58
2022-11-30T20:31:42.530Z,26.25
2022-11-30T20:34:10.511Z,32.10
2022-11-30T20:36:39.441Z,32.55
2022-11-30T20:39:08.141Z,33.40
2022-11-30T20:41:36.141Z,33.28
2022-11-30T20:44:04.696Z,35.83
2022-11-30T20:46:35.795Z,33.60
2022-11-30T20:49:13.988Z,34.40
2022-11-30T20:51:42.320Z,30.98
2022-11-30T20:54:12.692Z,32.65
2022-11-30T20:56:41.617Z,29.35
2022-11-30T20:59:16.937Z,32.03
2022-11-30T21:01:49.293Z,31.35
2022-11-30T21:04:17.349Z,32.97
2022-11-30T21:06:48.310Z,34.58
2022-11-30T21:09:18.509Z,22.50
2022-11-30T21:11:48.787Z,32.90
2022-11-30T21:14:17.927Z,30.90
2022-11-30T21:16:46.242Z,29.65
2022-11-30T21:19:15.128Z,31.92
2022-11-30T21:21:43.153Z,36.05
2022-11-30T21:24:12.076Z,28.83
2022-11-30T21:26:42.906Z,30.83
2022-11-30T21:29:15.381Z,28.80
2022-11-30T21:31:45.863Z,32.05
2022-11-30T21:34:14.490Z,31.35
2022-11-30T21:36:43.022Z,30.13
2022-11-30T21:39:16.994Z,31.02
2022-11-30T21:41:45.349Z,27.27
2022-11-30T21:44:15.555Z,27.23
2022-11-30T21:46:46.723Z,26.73
2022-11-30T21:49:15.971Z,29.58
2022-11-30T21:51:44.454Z,25.80
2022-11-30T21:54:14.350Z,29.45
2022-11-30T21:56:43.834Z,28.52
2022-11-30T21:59:15.416Z,32.30
2022-11-30T22:01:44.729Z,25.83
2022-11-30T22:04:14.393Z,31.33
2022-11-30T22:06:43.593Z,30.35
2022-11-30T22:09:15.709Z,29.45
2022-11-30T22:11:45.668Z,30.10
2022-11-30T22:14:16.987Z,32.45
2022-11-30T22:16:45.876Z,31.00
2022-11-30T22:19:16.269Z,27.75
2022-11-30T22:21:49.811Z,36.80
2022-11-30T22:24:18.350Z,27.48
2022-11-30T22:26:49.335Z,30.10
2022-11-30T22:29:21.370Z,31.05
2022-11-30T22:31:52.847Z,29.65
2022-11-30T22:34:21.864Z,28.83
2022-11-30T22:36:49.835Z,26.60
2022-11-30T22:39:21.043Z,30.02
2022-11-30T22:41:55.671Z,21.75
2022-11-30T22:44:25.805Z,28.58
2022-11-30T22:46:54.210Z,28.33
2022-11-30T22:49:22.399Z,26.48
2022-11-30T22:51:51.055Z,26.30
2022-11-30T22:54:19.665Z,25.60
2022-11-30T22:56:47.606Z,27.17
2022-11-30T22:59:16.319Z,28.42
2022-11-30T23:01:47.930Z,27.83
2022-11-30T23:04:19.741Z,24.33
2022-11-30T23:06:49.839Z,25.25
2022-11-30T23:09:21.925Z,25.13
2022-11-30T23:11:51.718Z,23.42
2022-11-30T23:14:19.939Z,19.90
2022-11-30T23:16:48.159Z,22.70
2022-11-30T23:19:16.898Z,26.27
2022-11-30T23:21:45.584Z,22.27
2022-11-30T23:24:17.750Z,18.67
2022-11-30T23:26:46.188Z,20.40
2022-11-30T23:29:16.696Z,23.95
2022-11-30T23:31:46.548Z,21.20
2022-11-30T23:34:21.615Z,25.73
2022-11-30T23:36:50.909Z,26.52
2022-11-30T23:39:20.725Z,27.83
2022-11-30T23:41:49.096Z,23.40
2022-11-30T23:44:17.457Z,31.02
2022-11-30T23:46:45.517Z,24.92
2022-11-30T23:49:14.378Z,24.48
2022-11-30T23:51:42.875Z,24.17
2022-11-30T23:54:11.094Z,25.75
2022-11-30T23:56:39.043Z,23.08
2022-11-30T23:59:06.949Z,22.98
